sensor_id;sensor_type;location;lat;lon;timestamp;P1;durP1;ratioP1;P2;durP2;ratioP2
76292;SDS011;65101;51.140;4.088;2022-12-18T00:01:04;14.40;;;10.88;;
76292;SDS011;65101;51.140;4.088;2022-12-18T00:03:38;12.63;;;10.35;;
76292;SDS011;65101;51.140;4.088;2022-12-18T00:06:04;14.40;;;9.82;;
76292;SDS011;65101;51.140;4.088;2022-12-18T00:08:29;15.15;;;11.40;;
76292;SDS011;65101;51.140;4.088;2022-12-18T00:10:55;11.95;;;9.65;;
76292;SDS011;65101;51.140;4.088;2022-12-18T00:13:28;12.30;;;10.27;;
76292;SDS011;65101;51.140;4.088;2022-12-18T00:15:53;14.43;;;11.02;;
76292;SDS011;65101;51.140;4.088;2022-12-18T00:18:19;13.90;;;10.63;;
76292;SDS011;65101;51.140;4.088;2022-12-18T00:20:44;14.40;;;10.90;;
76292;SDS011;65101;51.140;4.088;2022-12-18T00:23:10;13.45;;;10.52;;
76292;SDS011;65101;51.140;4.088;2022-12-18T00:25:36;14.45;;;10.90;;
76292;SDS011;65101;51.140;4.088;2022-12-18T00:28:02;12.98;;;10.27;;
76292;SDS011;65101;51.140;4.088;2022-12-18T00:30:28;14.55;;;10.38;;
76292;SDS011;65101;51.140;4.088;2022-12-18T00:32:54;13.38;;;10.13;;
76292;SDS011;65101;51.140;4.088;2022-12-18T00:35:20;15.02;;;9.88;;
76292;SDS011;65101;51.140;4.088;2022-12-18T00:37:46;14.88;;;11.40;;
76292;SDS011;65101;51.140;4.088;2022-12-18T00:40:12;13.15;;;10.45;;
76292;SDS011;65101;51.140;4.088;2022-12-18T00:42:37;14.68;;;10.02;;
76292;SDS011;65101;51.140;4.088;2022-12-18T00:45:25;14.07;;;10.70;;
76292;SDS011;65101;51.140;4.088;2022-12-18T00:47:53;12.68;;;10.10;;
76292;SDS011;65101;51.140;4.088;2022-12-18T00:50:19;13.50;;;10.82;;
76292;SDS011;65101;51.140;4.088;2022-12-18T00:52:45;14.07;;;10.82;;
76292;SDS011;65101;51.140;4.088;2022-12-18T00:55:11;12.65;;;10.32;;
76292;SDS011;65101;51.140;4.088;2022-12-18T00:57:37;12.73;;;10.25;;
76292;SDS011;65101;51.140;4.088;2022-12-18T01:00:03;14.82;;;11.57;;
76292;SDS011;65101;51.140;4.088;2022-12-18T01:02:30;13.60;;;10.82;;
76292;SDS011;65101;51.140;4.088;2022-12-18T01:04:56;13.18;;;10.48;;
76292;SDS011;65101;51.140;4.088;2022-12-18T01:07:22;14.50;;;11.30;;
76292;SDS011;65101;51.140;4.088;2022-12-18T01:09:47;14.32;;;11.27;;
76292;SDS011;65101;51.140;4.088;2022-12-18T01:12:13;14.60;;;11.57;;
76292;SDS011;65101;51.140;4.088;2022-12-18T01:14:39;13.20;;;10.70;;
76292;SDS011;65101;51.140;4.088;2022-12-18T01:17:04;12.38;;;10.07;;
76292;SDS011;65101;51.140;4.088;2022-12-18T01:19:30;12.82;;;10.10;;
76292;SDS011;65101;51.140;4.088;2022-12-18T01:21:55;14.63;;;10.38;;
76292;SDS011;65101;51.140;4.088;2022-12-18T01:24:21;13.75;;;10.30;;
76292;SDS011;65101;51.140;4.088;2022-12-18T01:26:47;15.00;;;11.32;;
76292;SDS011;65101;51.140;4.088;2022-12-18T01:29:13;12.93;;;9.98;;
76292;SDS011;65101;51.140;4.088;2022-12-18T01:31:38;12.50;;;9.98;;
76292;SDS011;65101;51.140;4.088;2022-12-18T01:34:04;12.50;;;10.30;;
76292;SDS011;65101;51.140;4.088;2022-12-18T01:36:32;15.07;;;11.10;;
76292;SDS011;65101;51.140;4.088;2022-12-18T01:39:00;12.57;;;10.15;;
76292;SDS011;65101;51.140;4.088;2022-12-18T01:41:30;14.85;;;10.70;;
76292;SDS011;65101;51.140;4.088;2022-12-18T01:47:25;13.82;;;10.38;;
76292;SDS011;65101;51.140;4.088;2022-12-18T01:50:16;12.85;;;10.27;;
76292;SDS011;65101;51.140;4.088;2022-12-18T01:52:50;13.52;;;10.95;;
76292;SDS011;65101;51.140;4.088;2022-12-18T01:55:20;12.20;;;9.05;;
76292;SDS011;65101;51.140;4.088;2022-12-18T01:57:49;15.10;;;10.80;;
76292;SDS011;65101;51.140;4.088;2022-12-18T02:00:18;11.52;;;9.52;;
76292;SDS011;65101;51.140;4.088;2022-12-18T02:02:46;15.50;;;10.98;;
76292;SDS011;65101;51.140;4.088;2022-12-18T02:05:13;13.20;;;10.75;;
76292;SDS011;65101;51.140;4.088;2022-12-18T02:10:46;15.05;;;11.48;;
76292;SDS011;65101;51.140;4.088;2022-12-18T02:15:54;14.48;;;10.77;;
76292;SDS011;65101;51.140;4.088;2022-12-18T02:18:25;16.00;;;11.55;;
76292;SDS011;65101;51.140;4.088;2022-12-18T02:26:12;14.10;;;11.63;;
76292;SDS011;65101;51.140;4.088;2022-12-18T02:28:44;15.05;;;11.30;;
76292;SDS011;65101;51.140;4.088;2022-12-18T02:31:14;13.63;;;10.50;;
76292;SDS011;65101;51.140;4.088;2022-12-18T02:33:44;13.52;;;10.65;;
76292;SDS011;65101;51.140;4.088;2022-12-18T02:36:12;14.32;;;10.90;;
76292;SDS011;65101;51.140;4.088;2022-12-18T02:38:39;14.70;;;11.05;;
76292;SDS011;65101;51.140;4.088;2022-12-18T02:41:06;13.38;;;10.20;;
76292;SDS011;65101;51.140;4.088;2022-12-18T02:43:33;15.18;;;11.60;;
76292;SDS011;65101;51.140;4.088;2022-12-18T02:45:59;14.10;;;11.13;;
76292;SDS011;65101;51.140;4.088;2022-12-18T02:48:28;13.40;;;11.48;;
76292;SDS011;65101;51.140;4.088;2022-12-18T02:51:38;13.98;;;10.98;;
76292;SDS011;65101;51.140;4.088;2022-12-18T02:53:59;13.02;;;10.68;;
76292;SDS011;65101;51.140;4.088;2022-12-18T02:56:38;12.32;;;9.70;;
76292;SDS011;65101;51.140;4.088;2022-12-18T02:59:15;16.83;;;10.73;;
76292;SDS011;65101;51.140;4.088;2022-12-18T03:04:48;14.25;;;11.63;;
76292;SDS011;65101;51.140;4.088;2022-12-18T03:07:28;13.48;;;10.32;;
76292;SDS011;65101;51.140;4.088;2022-12-18T03:10:21;13.80;;;11.40;;
76292;SDS011;65101;51.140;4.088;2022-12-18T03:12:52;18.02;;;13.10;;
76292;SDS011;65101;51.140;4.088;2022-12-18T03:15:38;15.18;;;10.88;;
76292;SDS011;65101;51.140;4.088;2022-12-18T03:18:09;14.43;;;11.00;;
76292;SDS011;65101;51.140;4.088;2022-12-18T03:20:48;12.77;;;10.52;;
76292;SDS011;65101;51.140;4.088;2022-12-18T03:23:16;14.65;;;10.90;;
76292;SDS011;65101;51.140;4.088;2022-12-18T03:25:49;13.88;;;11.00;;
76292;SDS011;65101;51.140;4.088;2022-12-18T03:28:20;14.85;;;11.27;;
76292;SDS011;65101;51.140;4.088;2022-12-18T03:30:47;13.82;;;10.10;;
76292;SDS011;65101;51.140;4.088;2022-12-18T03:33:28;14.98;;;11.48;;
76292;SDS011;65101;51.140;4.088;2022-12-18T03:35:59;13.75;;;11.02;;
76292;SDS011;65101;51.140;4.088;2022-12-18T03:38:26;15.63;;;11.75;;
76292;SDS011;65101;51.140;4.088;2022-12-18T03:43:35;13.35;;;10.40;;
76292;SDS011;65101;51.140;4.088;2022-12-18T03:51:41;14.85;;;11.25;;
76292;SDS011;65101;51.140;4.088;2022-12-18T03:54:12;14.63;;;11.25;;
76292;SDS011;65101;51.140;4.088;2022-12-18T03:56:40;14.25;;;10.88;;
76292;SDS011;65101;51.140;4.088;2022-12-18T03:59:10;14.35;;;11.30;;
76292;SDS011;65101;51.140;4.088;2022-12-18T04:01:39;15.40;;;11.52;;
76292;SDS011;65101;51.140;4.088;2022-12-18T04:04:08;15.32;;;11.35;;
76292;SDS011;65101;51.140;4.088;2022-12-18T04:06:35;15.40;;;11.90;;
76292;SDS011;65101;51.140;4.088;2022-12-18T04:09:02;15.77;;;12.18;;
76292;SDS011;65101;51.140;4.088;2022-12-18T04:11:29;14.95;;;11.30;;
76292;SDS011;65101;51.140;4.088;2022-12-18T04:13:56;15.65;;;11.80;;
76292;SDS011;65101;51.140;4.088;2022-12-18T04:16:22;15.25;;;11.70;;
76292;SDS011;65101;51.140;4.088;2022-12-18T04:18:51;14.88;;;11.30;;
76292;SDS011;65101;51.140;4.088;2022-12-18T04:21:18;12.93;;;10.10;;
76292;SDS011;65101;51.140;4.088;2022-12-18T04:23:44;13.73;;;10.90;;
76292;SDS011;65101;51.140;4.088;2022-12-18T04:26:10;12.70;;;10.00;;
76292;SDS011;65101;51.140;4.088;2022-12-18T04:28:35;12.73;;;10.50;;
76292;SDS011;65101;51.140;4.088;2022-12-18T04:31:01;14.32;;;10.45;;
76292;SDS011;65101;51.140;4.088;2022-12-18T04:33:27;13.10;;;10.18;;
76292;SDS011;65101;51.140;4.088;2022-12-18T04:35:53;13.30;;;11.05;;
76292;SDS011;65101;51.140;4.088;2022-12-18T04:38:18;13.10;;;10.82;;
76292;SDS011;65101;51.140;4.088;2022-12-18T04:40:44;12.45;;;10.38;;
76292;SDS011;65101;51.140;4.088;2022-12-18T04:43:10;12.82;;;9.88;;
76292;SDS011;65101;51.140;4.088;2022-12-18T04:45:35;12.32;;;9.35;;
76292;SDS011;65101;51.140;4.088;2022-12-18T04:48:01;12.60;;;9.82;;
76292;SDS011;65101;51.140;4.088;2022-12-18T04:50:28;12.98;;;10.75;;
76292;SDS011;65101;51.140;4.088;2022-12-18T04:52:54;15.18;;;10.65;;
76292;SDS011;65101;51.140;4.088;2022-12-18T04:55:20;12.52;;;10.05;;
76292;SDS011;65101;51.140;4.088;2022-12-18T04:57:49;11.68;;;9.30;;
76292;SDS011;65101;51.140;4.088;2022-12-18T05:00:15;13.95;;;10.40;;
76292;SDS011;65101;51.140;4.088;2022-12-18T05:02:40;12.15;;;9.73;;
76292;SDS011;65101;51.140;4.088;2022-12-18T05:05:06;11.10;;;9.52;;
76292;SDS011;65101;51.140;4.088;2022-12-18T05:07:32;10.93;;;8.88;;
76292;SDS011;65101;51.140;4.088;2022-12-18T05:09:58;12.02;;;9.18;;
76292;SDS011;65101;51.140;4.088;2022-12-18T05:12:24;11.60;;;9.48;;
76292;SDS011;65101;51.140;4.088;2022-12-18T05:14:49;10.88;;;9.40;;
76292;SDS011;65101;51.140;4.088;2022-12-18T05:17:15;10.52;;;8.68;;
76292;SDS011;65101;51.140;4.088;2022-12-18T05:19:41;11.73;;;9.55;;
76292;SDS011;65101;51.140;4.088;2022-12-18T05:22:07;10.25;;;8.55;;
76292;SDS011;65101;51.140;4.088;2022-12-18T05:24:32;11.32;;;9.30;;
76292;SDS011;65101;51.140;4.088;2022-12-18T05:26:58;10.50;;;8.93;;
76292;SDS011;65101;51.140;4.088;2022-12-18T05:29:24;11.10;;;9.13;;
76292;SDS011;65101;51.140;4.088;2022-12-18T05:31:49;12.68;;;9.10;;
76292;SDS011;65101;51.140;4.088;2022-12-18T05:34:15;11.02;;;8.95;;
76292;SDS011;65101;51.140;4.088;2022-12-18T05:36:41;10.63;;;8.50;;
76292;SDS011;65101;51.140;4.088;2022-12-18T05:39:06;11.77;;;8.45;;
76292;SDS011;65101;51.140;4.088;2022-12-18T05:41:32;10.88;;;8.65;;
76292;SDS011;65101;51.140;4.088;2022-12-18T05:43:58;10.02;;;7.88;;
76292;SDS011;65101;51.140;4.088;2022-12-18T05:46:24;10.15;;;8.20;;
76292;SDS011;65101;51.140;4.088;2022-12-18T05:48:50;9.82;;;8.13;;
76292;SDS011;65101;51.140;4.088;2022-12-18T05:51:17;10.88;;;8.68;;
76292;SDS011;65101;51.140;4.088;2022-12-18T05:53:44;10.10;;;8.15;;
76292;SDS011;65101;51.140;4.088;2022-12-18T05:56:11;9.68;;;8.52;;
76292;SDS011;65101;51.140;4.088;2022-12-18T05:58:39;11.05;;;8.82;;
76292;SDS011;65101;51.140;4.088;2022-12-18T06:01:06;9.57;;;8.50;;
76292;SDS011;65101;51.140;4.088;2022-12-18T06:03:34;10.40;;;8.20;;
76292;SDS011;65101;51.140;4.088;2022-12-18T06:06:00;10.82;;;8.25;;
76292;SDS011;65101;51.140;4.088;2022-12-18T06:08:25;9.88;;;8.38;;
76292;SDS011;65101;51.140;4.088;2022-12-18T06:10:51;9.50;;;7.85;;
76292;SDS011;65101;51.140;4.088;2022-12-18T06:13:18;9.27;;;7.80;;
76292;SDS011;65101;51.140;4.088;2022-12-18T06:15:44;10.40;;;8.23;;
76292;SDS011;65101;51.140;4.088;2022-12-18T06:18:10;9.05;;;8.02;;
76292;SDS011;65101;51.140;4.088;2022-12-18T06:20:35;10.90;;;8.15;;
76292;SDS011;65101;51.140;4.088;2022-12-18T06:23:02;11.25;;;8.35;;
76292;SDS011;65101;51.140;4.088;2022-12-18T06:25:28;10.35;;;8.50;;
76292;SDS011;65101;51.140;4.088;2022-12-18T06:27:54;11.02;;;8.68;;
76292;SDS011;65101;51.140;4.088;2022-12-18T06:30:19;11.10;;;7.93;;
76292;SDS011;65101;51.140;4.088;2022-12-18T06:32:45;11.65;;;9.35;;
76292;SDS011;65101;51.140;4.088;2022-12-18T06:35:12;10.07;;;7.93;;
76292;SDS011;65101;51.140;4.088;2022-12-18T06:37:38;10.35;;;8.13;;
76292;SDS011;65101;51.140;4.088;2022-12-18T06:40:04;11.57;;;8.75;;
76292;SDS011;65101;51.140;4.088;2022-12-18T06:42:30;10.38;;;8.65;;
76292;SDS011;65101;51.140;4.088;2022-12-18T06:44:57;10.20;;;8.15;;
76292;SDS011;65101;51.140;4.088;2022-12-18T06:47:22;10.25;;;7.93;;
76292;SDS011;65101;51.140;4.088;2022-12-18T06:49:48;9.27;;;7.45;;
76292;SDS011;65101;51.140;4.088;2022-12-18T06:52:13;8.82;;;7.32;;
76292;SDS011;65101;51.140;4.088;2022-12-18T06:54:39;9.27;;;7.80;;
76292;SDS011;65101;51.140;4.088;2022-12-18T06:57:05;9.43;;;8.18;;
76292;SDS011;65101;51.140;4.088;2022-12-18T06:59:30;10.77;;;7.50;;
76292;SDS011;65101;51.140;4.088;2022-12-18T07:01:56;10.48;;;7.53;;
76292;SDS011;65101;51.140;4.088;2022-12-18T07:04:21;9.73;;;8.20;;
76292;SDS011;65101;51.140;4.088;2022-12-18T07:06:47;8.88;;;7.20;;
76292;SDS011;65101;51.140;4.088;2022-12-18T07:09:13;10.35;;;8.30;;
76292;SDS011;65101;51.140;4.088;2022-12-18T07:11:38;9.75;;;7.78;;
76292;SDS011;65101;51.140;4.088;2022-12-18T07:14:04;9.63;;;7.43;;
76292;SDS011;65101;51.140;4.088;2022-12-18T07:16:29;9.98;;;7.63;;
76292;SDS011;65101;51.140;4.088;2022-12-18T07:18:55;10.88;;;8.20;;
76292;SDS011;65101;51.140;4.088;2022-12-18T07:21:21;12.13;;;7.53;;
76292;SDS011;65101;51.140;4.088;2022-12-18T07:23:48;8.77;;;7.18;;
76292;SDS011;65101;51.140;4.088;2022-12-18T07:26:15;11.32;;;8.00;;
76292;SDS011;65101;51.140;4.088;2022-12-18T07:28:42;10.82;;;8.32;;
76292;SDS011;65101;51.140;4.088;2022-12-18T07:31:13;10.65;;;7.85;;
76292;SDS011;65101;51.140;4.088;2022-12-18T07:33:40;9.13;;;6.95;;
76292;SDS011;65101;51.140;4.088;2022-12-18T07:36:06;10.25;;;7.60;;
76292;SDS011;65101;51.140;4.088;2022-12-18T07:38:33;9.60;;;7.55;;
76292;SDS011;65101;51.140;4.088;2022-12-18T07:41:12;11.20;;;7.95;;
76292;SDS011;65101;51.140;4.088;2022-12-18T07:43:38;8.18;;;6.55;;
76292;SDS011;65101;51.140;4.088;2022-12-18T07:46:05;8.35;;;6.85;;
76292;SDS011;65101;51.140;4.088;2022-12-18T07:48:31;10.38;;;7.60;;
76292;SDS011;65101;51.140;4.088;2022-12-18T07:51:04;9.18;;;7.47;;
76292;SDS011;65101;51.140;4.088;2022-12-18T07:53:32;9.68;;;8.13;;
76292;SDS011;65101;51.140;4.088;2022-12-18T07:55:59;10.93;;;8.48;;
76292;SDS011;65101;51.140;4.088;2022-12-18T07:58:27;9.35;;;7.47;;
76292;SDS011;65101;51.140;4.088;2022-12-18T08:00:53;9.80;;;7.20;;
76292;SDS011;65101;51.140;4.088;2022-12-18T08:03:19;9.30;;;7.32;;
76292;SDS011;65101;51.140;4.088;2022-12-18T08:05:44;9.85;;;7.30;;
76292;SDS011;65101;51.140;4.088;2022-12-18T08:08:10;11.40;;;7.68;;
76292;SDS011;65101;51.140;4.088;2022-12-18T08:10:36;9.27;;;6.95;;
76292;SDS011;65101;51.140;4.088;2022-12-18T08:13:03;11.65;;;8.00;;
76292;SDS011;65101;51.140;4.088;2022-12-18T08:15:28;10.18;;;6.70;;
76292;SDS011;65101;51.140;4.088;2022-12-18T08:17:57;9.73;;;6.80;;
76292;SDS011;65101;51.140;4.088;2022-12-18T08:20:22;8.18;;;6.68;;
76292;SDS011;65101;51.140;4.088;2022-12-18T08:22:48;7.47;;;6.30;;
76292;SDS011;65101;51.140;4.088;2022-12-18T08:25:13;7.20;;;6.13;;
76292;SDS011;65101;51.140;4.088;2022-12-18T08:27:39;8.65;;;6.90;;
76292;SDS011;65101;51.140;4.088;2022-12-18T08:30:05;9.35;;;6.93;;
76292;SDS011;65101;51.140;4.088;2022-12-18T08:32:31;8.73;;;6.78;;
76292;SDS011;65101;51.140;4.088;2022-12-18T08:34:58;8.88;;;6.25;;
76292;SDS011;65101;51.140;4.088;2022-12-18T08:37:23;8.15;;;5.93;;
76292;SDS011;65101;51.140;4.088;2022-12-18T08:39:49;9.18;;;6.97;;
76292;SDS011;65101;51.140;4.088;2022-12-18T08:42:15;8.85;;;6.78;;
76292;SDS011;65101;51.140;4.088;2022-12-18T08:44:59;9.98;;;7.40;;
76292;SDS011;65101;51.140;4.088;2022-12-18T08:47:25;8.35;;;6.03;;
76292;SDS011;65101;51.140;4.088;2022-12-18T08:49:51;8.70;;;6.85;;
76292;SDS011;65101;51.140;4.088;2022-12-18T08:52:16;8.80;;;6.53;;
76292;SDS011;65101;51.140;4.088;2022-12-18T08:54:42;8.55;;;6.50;;
76292;SDS011;65101;51.140;4.088;2022-12-18T08:57:08;8.05;;;6.47;;
76292;SDS011;65101;51.140;4.088;2022-12-18T08:59:33;8.00;;;6.32;;
76292;SDS011;65101;51.140;4.088;2022-12-18T09:01:59;7.88;;;5.95;;
76292;SDS011;65101;51.140;4.088;2022-12-18T09:04:26;8.05;;;6.28;;
76292;SDS011;65101;51.140;4.088;2022-12-18T09:06:54;9.52;;;6.35;;
76292;SDS011;65101;51.140;4.088;2022-12-18T09:09:20;8.35;;;6.57;;
76292;SDS011;65101;51.140;4.088;2022-12-18T09:11:46;8.10;;;5.93;;
76292;SDS011;65101;51.140;4.088;2022-12-18T09:14:12;8.02;;;6.03;;
76292;SDS011;65101;51.140;4.088;2022-12-18T09:16:37;10.40;;;6.78;;
76292;SDS011;65101;51.140;4.088;2022-12-18T09:19:04;8.93;;;6.10;;
76292;SDS011;65101;51.140;4.088;2022-12-18T09:21:31;8.05;;;6.13;;
76292;SDS011;65101;51.140;4.088;2022-12-18T09:23:58;10.63;;;6.07;;
76292;SDS011;65101;51.140;4.088;2022-12-18T09:26:24;9.10;;;5.93;;
76292;SDS011;65101;51.140;4.088;2022-12-18T09:28:51;8.93;;;6.18;;
76292;SDS011;65101;51.140;4.088;2022-12-18T09:31:18;8.07;;;6.03;;
76292;SDS011;65101;51.140;4.088;2022-12-18T09:33:45;10.15;;;5.40;;
76292;SDS011;65101;51.140;4.088;2022-12-18T09:36:12;10.13;;;7.07;;
76292;SDS011;65101;51.140;4.088;2022-12-18T09:38:39;11.07;;;6.32;;
76292;SDS011;65101;51.140;4.088;2022-12-18T09:41:06;8.90;;;5.68;;
76292;SDS011;65101;51.140;4.088;2022-12-18T09:46:47;7.05;;;5.07;;
76292;SDS011;65101;51.140;4.088;2022-12-18T09:49:29;6.15;;;5.40;;
76292;SDS011;65101;51.140;4.088;2022-12-18T09:54:33;7.25;;;5.57;;
76292;SDS011;65101;51.140;4.088;2022-12-18T09:57:03;10.30;;;6.07;;
76292;SDS011;65101;51.140;4.088;2022-12-18T09:59:36;9.00;;;5.88;;
76292;SDS011;65101;51.140;4.088;2022-12-18T10:02:12;7.05;;;5.40;;
76292;SDS011;65101;51.140;4.088;2022-12-18T10:04:43;6.53;;;5.25;;
76292;SDS011;65101;51.140;4.088;2022-12-18T10:07:18;6.63;;;4.78;;
76292;SDS011;65101;51.140;4.088;2022-12-18T10:10:27;6.03;;;5.05;;
76292;SDS011;65101;51.140;4.088;2022-12-18T10:13:03;7.75;;;5.38;;
76292;SDS011;65101;51.140;4.088;2022-12-18T10:15:43;6.38;;;5.25;;
76292;SDS011;65101;51.140;4.088;2022-12-18T10:18:18;6.97;;;5.93;;
76292;SDS011;65101;51.140;4.088;2022-12-18T10:20:58;7.03;;;5.57;;
76292;SDS011;65101;51.140;4.088;2022-12-18T10:23:39;9.80;;;5.70;;
76292;SDS011;65101;51.140;4.088;2022-12-18T10:26:11;9.70;;;5.15;;
76292;SDS011;65101;51.140;4.088;2022-12-18T10:28:40;9.85;;;5.53;;
76292;SDS011;65101;51.140;4.088;2022-12-18T10:31:06;5.50;;;4.78;;
76292;SDS011;65101;51.140;4.088;2022-12-18T10:33:37;8.75;;;4.90;;
76292;SDS011;65101;51.140;4.088;2022-12-18T10:36:03;6.82;;;5.25;;
76292;SDS011;65101;51.140;4.088;2022-12-18T10:38:30;6.28;;;4.88;;
76292;SDS011;65101;51.140;4.088;2022-12-18T10:40:58;7.07;;;5.25;;
76292;SDS011;65101;51.140;4.088;2022-12-18T10:44:11;6.72;;;5.40;;
76292;SDS011;65101;51.140;4.088;2022-12-18T10:46:45;5.88;;;4.78;;
76292;SDS011;65101;51.140;4.088;2022-12-18T10:49:18;6.72;;;4.90;;
76292;SDS011;65101;51.140;4.088;2022-12-18T10:51:47;6.78;;;4.60;;
76292;SDS011;65101;51.140;4.088;2022-12-18T10:54:21;6.68;;;5.53;;
76292;SDS011;65101;51.140;4.088;2022-12-18T10:56:48;6.13;;;5.03;;
76292;SDS011;65101;51.140;4.088;2022-12-18T10:59:14;6.75;;;5.05;;
76292;SDS011;65101;51.140;4.088;2022-12-18T11:01:52;7.53;;;5.13;;
76292;SDS011;65101;51.140;4.088;2022-12-18T11:04:29;6.88;;;4.60;;
76292;SDS011;65101;51.140;4.088;2022-12-18T11:07:00;6.63;;;4.72;;
76292;SDS011;65101;51.140;4.088;2022-12-18T11:09:31;6.47;;;4.88;;
76292;SDS011;65101;51.140;4.088;2022-12-18T11:12:02;4.97;;;4.20;;
76292;SDS011;65101;51.140;4.088;2022-12-18T11:14:45;5.50;;;4.35;;
76292;SDS011;65101;51.140;4.088;2022-12-18T11:17:31;8.75;;;4.32;;
76292;SDS011;65101;51.140;4.088;2022-12-18T11:20:00;5.95;;;4.65;;
76292;SDS011;65101;51.140;4.088;2022-12-18T11:22:32;6.82;;;5.40;;
76292;SDS011;65101;51.140;4.088;2022-12-18T11:27:40;6.38;;;5.47;;
76292;SDS011;65101;51.140;4.088;2022-12-18T11:30:30;5.35;;;4.55;;
76292;SDS011;65101;51.140;4.088;2022-12-18T11:33:06;7.63;;;6.07;;
76292;SDS011;65101;51.140;4.088;2022-12-18T11:35:55;10.57;;;5.80;;
76292;SDS011;65101;51.140;4.088;2022-12-18T11:38:24;7.50;;;6.45;;
76292;SDS011;65101;51.140;4.088;2022-12-18T11:44:25;8.70;;;6.47;;
76292;SDS011;65101;51.140;4.088;2022-12-18T11:47:02;9.05;;;7.28;;
76292;SDS011;65101;51.140;4.088;2022-12-18T11:49:35;15.02;;;8.45;;
76292;SDS011;65101;51.140;4.088;2022-12-18T11:52:03;16.65;;;9.18;;
76292;SDS011;65101;51.140;4.088;2022-12-18T11:54:43;16.80;;;9.00;;
76292;SDS011;65101;51.140;4.088;2022-12-18T11:57:19;16.05;;;9.45;;
76292;SDS011;65101;51.140;4.088;2022-12-18T12:19:49;15.15;;;7.72;;
76292;SDS011;65101;51.140;4.088;2022-12-18T12:25:37;16.30;;;7.47;;
76292;SDS011;65101;51.140;4.088;2022-12-18T12:34:01;11.38;;;6.97;;
76292;SDS011;65101;51.140;4.088;2022-12-18T12:39:29;16.88;;;7.10;;
76292;SDS011;65101;51.140;4.088;2022-12-18T12:41:57;13.88;;;7.50;;
76292;SDS011;65101;51.140;4.088;2022-12-18T12:44:48;14.70;;;6.65;;
76292;SDS011;65101;51.140;4.088;2022-12-18T12:47:30;11.40;;;6.65;;
76292;SDS011;65101;51.140;4.088;2022-12-18T12:50:02;14.30;;;7.50;;
76292;SDS011;65101;51.140;4.088;2022-12-18T12:52:31;11.73;;;6.35;;
76292;SDS011;65101;51.140;4.088;2022-12-18T12:55:05;12.15;;;6.43;;
76292;SDS011;65101;51.140;4.088;2022-12-18T12:57:38;13.00;;;6.72;;
76292;SDS011;65101;51.140;4.088;2022-12-18T13:00:11;13.40;;;7.13;;
76292;SDS011;65101;51.140;4.088;2022-12-18T13:05:30;10.82;;;6.60;;
76292;SDS011;65101;51.140;4.088;2022-12-18T13:08:04;10.25;;;6.13;;
76292;SDS011;65101;51.140;4.088;2022-12-18T13:10:50;11.95;;;6.45;;
76292;SDS011;65101;51.140;4.088;2022-12-18T13:13:50;9.90;;;6.13;;
76292;SDS011;65101;51.140;4.088;2022-12-18T13:16:21;14.55;;;7.13;;
76292;SDS011;65101;51.140;4.088;2022-12-18T13:18:52;9.25;;;5.95;;
76292;SDS011;65101;51.140;4.088;2022-12-18T13:21:23;10.60;;;6.38;;
76292;SDS011;65101;51.140;4.088;2022-12-18T13:23:54;9.07;;;6.00;;
76292;SDS011;65101;51.140;4.088;2022-12-18T13:28:56;12.02;;;6.32;;
76292;SDS011;65101;51.140;4.088;2022-12-18T13:36:48;9.88;;;6.80;;
76292;SDS011;65101;51.140;4.088;2022-12-18T13:41:43;10.82;;;6.03;;
76292;SDS011;65101;51.140;4.088;2022-12-18T13:47:02;9.48;;;6.75;;
76292;SDS011;65101;51.140;4.088;2022-12-18T13:49:36;10.25;;;6.60;;
76292;SDS011;65101;51.140;4.088;2022-12-18T13:52:17;10.25;;;7.07;;
76292;SDS011;65101;51.140;4.088;2022-12-18T14:00:27;9.27;;;6.20;;
76292;SDS011;65101;51.140;4.088;2022-12-18T14:02:54;9.38;;;5.93;;
76292;SDS011;65101;51.140;4.088;2022-12-18T14:07:50;11.23;;;6.90;;
76292;SDS011;65101;51.140;4.088;2022-12-18T14:10:17;8.70;;;6.57;;
76292;SDS011;65101;51.140;4.088;2022-12-18T14:12:47;11.40;;;7.63;;
76292;SDS011;65101;51.140;4.088;2022-12-18T14:17:54;8.35;;;5.55;;
76292;SDS011;65101;51.140;4.088;2022-12-18T14:20:28;8.48;;;6.20;;
76292;SDS011;65101;51.140;4.088;2022-12-18T14:22:56;8.07;;;5.78;;
76292;SDS011;65101;51.140;4.088;2022-12-18T14:25:29;9.30;;;6.18;;
76292;SDS011;65101;51.140;4.088;2022-12-18T14:30:28;9.55;;;6.13;;
76292;SDS011;65101;51.140;4.088;2022-12-18T14:32:59;7.72;;;5.50;;
76292;SDS011;65101;51.140;4.088;2022-12-18T14:35:26;9.20;;;6.00;;
76292;SDS011;65101;51.140;4.088;2022-12-18T14:37:52;10.30;;;6.38;;
76292;SDS011;65101;51.140;4.088;2022-12-18T14:40:18;8.25;;;6.45;;
76292;SDS011;65101;51.140;4.088;2022-12-18T14:42:44;9.85;;;6.93;;
76292;SDS011;65101;51.140;4.088;2022-12-18T14:47:59;9.15;;;7.53;;
76292;SDS011;65101;51.140;4.088;2022-12-18T14:50:25;11.93;;;7.88;;
76292;SDS011;65101;51.140;4.088;2022-12-18T14:52:51;9.90;;;7.50;;
76292;SDS011;65101;51.140;4.088;2022-12-18T14:55:17;9.77;;;7.88;;
76292;SDS011;65101;51.140;4.088;2022-12-18T14:57:45;10.00;;;7.85;;
76292;SDS011;65101;51.140;4.088;2022-12-18T15:00:15;9.85;;;7.65;;
76292;SDS011;65101;51.140;4.088;2022-12-18T15:02:54;10.50;;;7.57;;
76292;SDS011;65101;51.140;4.088;2022-12-18T15:07:53;8.68;;;6.90;;
76292;SDS011;65101;51.140;4.088;2022-12-18T15:10:21;8.52;;;7.30;;
76292;SDS011;65101;51.140;4.088;2022-12-18T15:18:03;8.55;;;7.50;;
76292;SDS011;65101;51.140;4.088;2022-12-18T15:20:39;11.70;;;7.95;;
76292;SDS011;65101;51.140;4.088;2022-12-18T15:26:18;8.73;;;7.45;;
76292;SDS011;65101;51.140;4.088;2022-12-18T15:33:42;7.88;;;5.53;;
76292;SDS011;65101;51.140;4.088;2022-12-18T15:38:47;9.32;;;6.75;;
76292;SDS011;65101;51.140;4.088;2022-12-18T15:41:14;11.52;;;5.80;;
76292;SDS011;65101;51.140;4.088;2022-12-18T15:43:41;8.38;;;6.30;;
76292;SDS011;65101;51.140;4.088;2022-12-18T15:46:14;10.15;;;6.53;;
76292;SDS011;65101;51.140;4.088;2022-12-18T15:48:44;7.25;;;5.72;;
76292;SDS011;65101;51.140;4.088;2022-12-18T15:51:14;8.75;;;6.35;;
76292;SDS011;65101;51.140;4.088;2022-12-18T15:53:49;10.23;;;6.45;;
76292;SDS011;65101;51.140;4.088;2022-12-18T15:56:17;8.05;;;6.00;;
76292;SDS011;65101;51.140;4.088;2022-12-18T15:59:04;9.32;;;6.45;;
76292;SDS011;65101;51.140;4.088;2022-12-18T16:01:37;7.38;;;5.53;;
76292;SDS011;65101;51.140;4.088;2022-12-18T16:04:03;7.70;;;5.72;;
76292;SDS011;65101;51.140;4.088;2022-12-18T16:06:29;8.65;;;5.45;;
76292;SDS011;65101;51.140;4.088;2022-12-18T16:08:54;9.65;;;7.22;;
76292;SDS011;65101;51.140;4.088;2022-12-18T16:14:15;7.72;;;6.13;;
76292;SDS011;65101;51.140;4.088;2022-12-18T16:16:41;7.55;;;5.50;;
76292;SDS011;65101;51.140;4.088;2022-12-18T16:19:06;9.35;;;5.30;;
76292;SDS011;65101;51.140;4.088;2022-12-18T16:21:32;10.38;;;6.82;;
76292;SDS011;65101;51.140;4.088;2022-12-18T16:23:58;9.18;;;6.18;;
76292;SDS011;65101;51.140;4.088;2022-12-18T16:26:25;7.70;;;5.93;;
76292;SDS011;65101;51.140;4.088;2022-12-18T16:28:50;7.80;;;6.30;;
76292;SDS011;65101;51.140;4.088;2022-12-18T16:31:16;7.18;;;5.47;;
76292;SDS011;65101;51.140;4.088;2022-12-18T16:33:42;7.55;;;5.68;;
76292;SDS011;65101;51.140;4.088;2022-12-18T16:36:07;7.45;;;5.88;;
76292;SDS011;65101;51.140;4.088;2022-12-18T16:38:33;7.80;;;6.13;;
76292;SDS011;65101;51.140;4.088;2022-12-18T16:40:59;6.93;;;5.60;;
76292;SDS011;65101;51.140;4.088;2022-12-18T16:43:43;7.47;;;5.28;;
76292;SDS011;65101;51.140;4.088;2022-12-18T16:46:09;9.25;;;5.70;;
76292;SDS011;65101;51.140;4.088;2022-12-18T16:48:34;8.60;;;5.63;;
76292;SDS011;65101;51.140;4.088;2022-12-18T16:51:01;7.90;;;6.28;;